KMRY/MRY METAR and TAF weather

Enter ICAO airport designator
Station Type Date Time Source
KMRY METAR 2020/09/23 01:54 UTC NOAA

KMRY 230154Z AUTO 25007KT 10SM CLR A3005 RMK AO2 SLPNO $


Station Type Date Time Source
KMRY Decoded METAR 2020/09/23 01:54 UTC NOAA

MONTEREY PENINSULA AIRPORT, CA, United States (KMRY) 36-35N 121-51W 66M
Sep 22, 2020 - 09:54 PM EDT / 2020.09.23 0154 UTC
Wind: from the WSW (250 degrees) at 8 MPH (7 KT):0
Visibility: 10 mile(s):0
Sky conditions: clear
Pressure (altimeter): 30.05 in. Hg (1017 hPa)
ob: KMRY 230154Z AUTO 25007KT 10SM CLR A3005 RMK AO2 SLPNO
cycle: 2

Station Type Date Time Source
KMRY TAF 2020/09/22 18:22 UTC NOAA

TAF KMRY 221720Z 2218/2318 30005KT P6SM SCT002
TEMPO 2218/2219 1SM BR BKN001
FM221900 30008KT P6SM SKC
FM230300 VRB03KT P6SM FEW002
FM230900 00000KT 2SM BR SCT001

Example: see airport list